Time;durP1;ratioP1;P1;durP2;ratioP2;P2;SDS_P1;SDS_P2;PMS_P1;PMS_P2;Temp;Humidity;BMP_temperature;BMP_pressure;BME280_temperature;BME280_humidity;BME280_pressure;Samples;Min_cycle;Max_cycle;Signal;HPM_P1;HPM_P2
2021/01/24 00:02:05;;;;;;;12.93;12.03;;;2.30;99.90;;;;;;6123479;23;20441;-80
2021/01/24 00:04:31;;;;;;;13.03;12.13;;;2.20;99.90;;;;;;6125195;23;20896;-79
2021/01/24 00:06:57;;;;;;;13.17;12.27;;;2.20;99.90;;;;;;6123348;23;20487;-81
2021/01/24 00:09:24;;;;;;;13.20;12.30;;;2.20;99.90;;;;;;6123171;23;20426;-80
2021/01/24 00:11:51;;;;;;;12.73;11.83;;;2.10;99.90;;;;;;6123365;23;20778;-79
2021/01/24 00:14:17;;;;;;;12.93;12.03;;;2.20;99.90;;;;;;6123448;23;20418;-80
2021/01/24 00:16:43;;;;;;;12.43;11.60;;;2.20;99.90;;;;;;6124966;23;20390;-80
2021/01/24 00:19:10;;;;;;;12.67;11.87;;;2.20;99.90;;;;;;6122821;23;20420;-80
2021/01/24 00:21:36;;;;;;;13.53;12.60;;;2.20;99.90;;;;;;6122317;23;20434;-80
2021/01/24 00:24:02;;;;;;;12.97;12.07;;;2.20;99.90;;;;;;6123308;23;20492;-80
2021/01/24 00:26:29;;;;;;;12.80;12.00;;;2.10;99.90;;;;;;6123324;23;20411;-80
2021/01/24 00:28:56;;;;;;;12.87;11.87;;;2.10;99.90;;;;;;6122966;23;20419;-80
2021/01/24 00:31:22;;;;;;;14.83;13.73;;;2.10;99.90;;;;;;6124627;23;20428;-80
2021/01/24 00:33:48;;;;;;;14.43;13.33;;;2.10;99.90;;;;;;6124351;23;20395;-80
2021/01/24 00:36:16;;;;;;;14.27;13.27;;;2.10;99.90;;;;;;6123166;23;20448;-80
2021/01/24 00:38:42;;;;;;;14.53;13.30;;;2.10;99.90;;;;;;6122834;23;20431;-80
2021/01/24 00:41:08;;;;;;;13.57;12.53;;;2.10;99.90;;;;;;6124212;23;20780;-79
2021/01/24 00:43:35;;;;;;;12.83;12.00;;;2.10;99.90;;;;;;6124689;23;20382;-80
2021/01/24 00:46:02;;;;;;;13.13;12.13;;;2.10;99.90;;;;;;6124882;23;20486;-80
2021/01/24 00:48:33;;;;;;;13.10;12.10;;;2.10;99.90;;;;;;6124431;23;20395;-80
2021/01/24 00:50:59;;;;;;;12.40;11.60;;;2.10;99.90;;;;;;6123314;23;20857;-80
2021/01/24 00:53:26;;;;;;;12.90;12.00;;;2.10;99.90;;;;;;6123043;23;20433;-80
2021/01/24 00:55:52;;;;;;;12.57;11.77;;;2.20;99.90;;;;;;6123352;23;20967;-80
2021/01/24 00:58:18;;;;;;;12.03;11.17;;;2.30;99.90;;;;;;6124284;23;20391;-80
2021/01/24 01:00:45;;;;;;;11.90;11.20;;;2.30;99.90;;;;;;6124547;23;20928;-80
2021/01/24 01:03:12;;;;;;;11.53;10.83;;;2.30;99.90;;;;;;6123287;23;20417;-80
2021/01/24 01:05:39;;;;;;;11.37;10.67;;;2.30;99.90;;;;;;6124881;23;20395;-80
2021/01/24 01:08:06;;;;;;;11.53;10.73;;;2.30;99.90;;;;;;6123622;23;20421;-80
2021/01/24 01:10:32;;;;;;;11.10;10.40;;;2.30;99.90;;;;;;6124593;23;20415;-80
2021/01/24 01:12:59;;;;;;;11.23;10.60;;;2.40;99.90;;;;;;6123117;23;20438;-80
2021/01/24 01:15:25;;;;;;;11.50;10.90;;;2.30;99.90;;;;;;6123022;23;20418;-80
2021/01/24 01:17:52;;;;;;;11.40;10.70;;;2.40;99.90;;;;;;6123173;23;20413;-80
2021/01/24 01:20:19;;;;;;;11.47;10.77;;;2.40;99.90;;;;;;6122424;23;20465;-80
2021/01/24 01:22:46;;;;;;;11.63;10.93;;;2.50;99.90;;;;;;6123091;23;20502;-80
2021/01/24 01:25:12;;;;;;;11.60;11.00;;;2.50;99.90;;;;;;6123181;23;20416;-80
2021/01/24 01:27:39;;;;;;;11.50;10.80;;;2.50;99.90;;;;;;6123076;23;20740;-80
2021/01/24 01:30:07;;;;;;;11.93;11.23;;;2.50;99.90;;;;;;6124233;23;20397;-80
2021/01/24 01:32:33;;;;;;;11.80;11.10;;;2.60;99.90;;;;;;6122938;23;20435;-80
2021/01/24 01:35:00;;;;;;;11.77;11.07;;;2.50;99.90;;;;;;6122970;23;20427;-80
2021/01/24 01:37:27;;;;;;;11.40;10.80;;;2.50;99.90;;;;;;6123045;23;20426;-80
2021/01/24 01:39:53;;;;;;;11.93;11.23;;;2.50;99.90;;;;;;6124118;23;20429;-80
2021/01/24 01:42:20;;;;;;;11.47;10.87;;;2.50;99.90;;;;;;6122979;23;20443;-80
2021/01/24 01:44:46;;;;;;;11.50;10.90;;;2.50;99.90;;;;;;6123160;23;20775;-80
2021/01/24 01:47:21;;;;;;;12.00;11.23;;;2.40;99.90;;;;;;6126301;23;20389;-80
2021/01/24 01:49:47;;;;;;;11.90;11.20;;;2.40;99.90;;;;;;6125939;23;20507;-80
2021/01/24 01:52:13;;;;;;;12.40;11.70;;;2.30;99.90;;;;;;6124612;23;20487;-81
2021/01/24 01:54:47;;;;;;;12.27;11.47;;;2.30;99.90;;;;;;6124648;23;20495;-80
2021/01/24 01:57:13;;;;;;;11.70;11.03;;;2.40;99.90;;;;;;6126156;23;20468;-80
2021/01/24 01:59:39;;;;;;;11.97;11.23;;;2.40;99.90;;;;;;6124152;23;20434;-79
2021/01/24 02:02:11;;;;;;;12.00;11.30;;;2.40;99.90;;;;;;6126609;23;20462;-80
2021/01/24 02:04:42;;;;;;;11.63;10.93;;;2.40;99.90;;;;;;6126279;23;20389;-80
2021/01/24 02:07:14;;;;;;;12.20;11.40;;;2.40;99.90;;;;;;6124434;23;20407;-80
2021/01/24 02:09:47;;;;;;;11.60;11.00;;;2.50;99.90;;;;;;6125904;23;20431;-80
2021/01/24 02:12:24;;;;;;;11.40;10.63;;;2.50;99.90;;;;;;6124595;23;21002;-80
2021/01/24 02:14:56;;;;;;;11.60;11.00;;;2.60;99.90;;;;;;6125966;23;20382;-80
2021/01/24 02:17:25;;;;;;;11.77;11.07;;;2.60;99.90;;;;;;6124467;23;20409;-80
2021/01/24 02:20:02;;;;;;;11.53;10.83;;;2.60;99.90;;;;;;6125816;23;20432;-80
2021/01/24 02:22:32;;;;;;;11.67;10.97;;;2.60;99.90;;;;;;6125651;23;20523;-80
2021/01/24 02:25:05;;;;;;;11.30;10.70;;;2.60;99.90;;;;;;6125907;23;20414;-80
2021/01/24 02:27:39;;;;;;;11.40;10.70;;;2.60;99.90;;;;;;6126001;23;20374;-80
2021/01/24 02:30:19;;;;;;;11.07;10.47;;;2.60;99.90;;;;;;6124173;23;20822;-80
2021/01/24 02:32:47;;;;;;;11.10;10.50;;;2.60;99.90;;;;;;6125830;23;20416;-81
2021/01/24 02:35:14;;;;;;;11.20;10.60;;;2.50;99.90;;;;;;6124373;23;20415;-81
2021/01/24 02:37:42;;;;;;;11.10;10.50;;;2.50;99.90;;;;;;6125811;23;20715;-80
2021/01/24 02:40:11;;;;;;;11.00;10.40;;;2.50;99.90;;;;;;6123901;23;20811;-80
2021/01/24 02:42:38;;;;;;;10.87;10.27;;;2.50;99.90;;;;;;6125291;23;20444;-80
2021/01/24 02:45:05;;;;;;;11.00;10.40;;;2.40;99.90;;;;;;6124088;23;20409;-80
2021/01/24 02:47:34;;;;;;;11.00;10.40;;;2.40;99.90;;;;;;6124244;23;20412;-80
2021/01/24 02:50:02;;;;;;;10.73;10.17;;;2.30;99.90;;;;;;6123812;23;20417;-80
2021/01/24 02:52:28;;;;;;;10.83;10.23;;;2.30;99.90;;;;;;6124170;23;21000;-80
2021/01/24 02:54:56;;;;;;;10.70;10.10;;;2.30;99.90;;;;;;6124129;23;20420;-80
2021/01/24 02:57:22;;;;;;;10.70;10.13;;;2.30;99.90;;;;;;6123723;23;20417;-80
2021/01/24 02:59:50;;;;;;;10.77;10.17;;;2.30;99.90;;;;;;6123708;23;20441;-80
2021/01/24 03:02:16;;;;;;;11.20;10.60;;;2.30;99.90;;;;;;6124263;23;20507;-81
2021/01/24 03:04:43;;;;;;;10.90;10.30;;;2.30;99.90;;;;;;6124180;23;20413;-80
2021/01/24 03:07:09;;;;;;;11.10;10.50;;;2.30;99.90;;;;;;6125519;23;20395;-80
2021/01/24 03:09:36;;;;;;;11.07;10.47;;;2.30;99.90;;;;;;6123541;23;20417;-80
2021/01/24 03:12:04;;;;;;;11.00;10.40;;;2.20;99.90;;;;;;6124233;23;20967;-80
2021/01/24 03:14:33;;;;;;;11.33;10.60;;;2.10;99.90;;;;;;6125556;23;20387;-81
2021/01/24 03:17:01;;;;;;;10.93;10.33;;;2.10;99.90;;;;;;6124215;23;20422;-80
2021/01/24 03:19:30;;;;;;;11.33;10.60;;;2.10;99.90;;;;;;6125017;23;20397;-80
2021/01/24 03:21:58;;;;;;;10.80;10.20;;;2.10;99.90;;;;;;6123880;23;20781;-81
2021/01/24 03:24:26;;;;;;;11.20;10.60;;;2.00;99.90;;;;;;6125322;23;20782;-80
2021/01/24 03:26:52;;;;;;;11.10;10.50;;;2.00;99.90;;;;;;6125961;23;20398;-80
2021/01/24 03:29:20;;;;;;;11.03;10.43;;;1.90;99.90;;;;;;6124402;23;20432;-80
2021/01/24 03:31:46;;;;;;;10.97;10.37;;;1.90;99.90;;;;;;6125842;23;20407;-81
2021/01/24 03:34:18;;;;;;;10.83;10.23;;;1.80;99.90;;;;;;6124626;23;20418;-81
2021/01/24 03:36:45;;;;;;;10.90;10.30;;;1.80;99.90;;;;;;6125456;23;20379;-80
2021/01/24 03:39:12;;;;;;;11.03;10.43;;;1.70;99.90;;;;;;6125076;23;20782;-81
2021/01/24 03:41:39;;;;;;;11.13;10.53;;;1.70;99.90;;;;;;6123374;23;20452;-81
2021/01/24 03:44:06;;;;;;;11.40;10.80;;;1.60;99.90;;;;;;6123612;23;20428;-80
2021/01/24 03:46:33;;;;;;;11.10;10.50;;;1.60;99.90;;;;;;6124018;23;20424;-81
2021/01/24 03:48:59;;;;;;;10.83;10.23;;;1.60;99.90;;;;;;6125188;23;20391;-81
2021/01/24 03:51:25;;;;;;;11.00;10.40;;;1.60;99.90;;;;;;6126301;23;20417;-80
2021/01/24 03:53:52;;;;;;;10.87;10.27;;;1.60;99.90;;;;;;6123663;23;20423;-80
2021/01/24 03:56:19;;;;;;;11.00;10.40;;;1.60;99.90;;;;;;6123537;23;20399;-82
2021/01/24 03:58:45;;;;;;;11.00;10.40;;;1.60;99.90;;;;;;6117286;23;20763;-81
2021/01/24 04:01:11;;;;;;;11.00;10.40;;;1.60;99.90;;;;;;6123355;23;20445;-81
2021/01/24 04:03:38;;;;;;;11.03;10.43;;;1.60;99.90;;;;;;6121397;23;20445;-81
2021/01/24 04:06:04;;;;;;;11.07;10.40;;;1.50;99.90;;;;;;6121078;23;20410;-81
2021/01/24 04:08:31;;;;;;;11.13;10.53;;;1.50;99.90;;;;;;6121387;23;20387;-82
2021/01/24 04:10:57;;;;;;;11.10;10.50;;;1.40;99.90;;;;;;6124518;23;20394;-77
2021/01/24 04:13:25;;;;;;;11.00;10.40;;;1.40;99.90;;;;;;6123126;23;20427;-77
2021/01/24 04:15:51;;;;;;;11.00;10.40;;;1.40;99.90;;;;;;6123991;23;20416;-77
2021/01/24 04:18:18;;;;;;;11.20;10.50;;;1.40;99.90;;;;;;6123225;23;20417;-77
2021/01/24 04:20:45;;;;;;;11.27;10.67;;;1.40;99.90;;;;;;6123351;23;20992;-77
2021/01/24 04:23:11;;;;;;;11.10;10.50;;;1.50;99.90;;;;;;6123765;23;20421;-77
2021/01/24 04:25:38;;;;;;;11.20;10.60;;;1.50;99.90;;;;;;6123222;23;20451;-77
2021/01/24 04:28:05;;;;;;;11.27;10.67;;;1.60;99.90;;;;;;6123891;23;20409;-77
2021/01/24 04:30:32;;;;;;;11.33;10.73;;;1.60;99.90;;;;;;6124725;23;20393;-77
2021/01/24 04:32:58;;;;;;;11.27;10.57;;;1.60;99.90;;;;;;6123533;23;20444;-78
2021/01/24 04:35:25;;;;;;;11.30;10.40;;;1.60;99.90;;;;;;6125075;23;20393;-78
2021/01/24 04:37:57;;;;;;;11.07;10.47;;;1.60;99.90;;;;;;6121499;23;20422;-77
2021/01/24 04:40:23;;;;;;;11.37;10.67;;;1.60;99.90;;;;;;6123709;23;20433;-77
2021/01/24 04:42:49;;;;;;;11.50;10.80;;;1.70;99.90;;;;;;6123470;23;20449;-81
2021/01/24 04:45:16;;;;;;;11.87;11.17;;;1.60;99.90;;;;;;6124491;23;20454;-81
2021/01/24 04:47:45;;;;;;;11.50;10.80;;;1.60;99.90;;;;;;6122797;23;20417;-80
2021/01/24 04:50:13;;;;;;;11.70;11.00;;;1.60;99.90;;;;;;6122314;23;20425;-80
2021/01/24 04:52:39;;;;;;;11.40;10.70;;;1.60;99.90;;;;;;6122310;23;20438;-79
2021/01/24 04:55:07;;;;;;;11.90;11.10;;;1.50;99.90;;;;;;6122809;23;20422;-80
2021/01/24 04:57:33;;;;;;;12.07;11.17;;;1.60;99.90;;;;;;6122746;23;20411;-82
2021/01/24 05:00:00;;;;;;;11.80;11.10;;;1.50;99.90;;;;;;6121436;23;20433;-82
2021/01/24 05:02:27;;;;;;;11.90;11.10;;;1.50;99.90;;;;;;6122746;23;20806;-81
2021/01/24 05:04:54;;;;;;;12.93;12.03;;;1.50;99.90;;;;;;6122994;23;20426;-81
2021/01/24 05:07:21;;;;;;;12.77;11.80;;;1.40;99.90;;;;;;6122725;23;20729;-79
2021/01/24 05:09:47;;;;;;;12.70;11.70;;;1.30;99.90;;;;;;6122798;23;20426;-80
2021/01/24 05:12:14;;;;;;;12.43;11.63;;;1.20;99.90;;;;;;6124671;23;20411;-80
2021/01/24 05:14:41;;;;;;;12.57;11.77;;;1.10;99.90;;;;;;6123740;23;20455;-80
2021/01/24 05:17:07;;;;;;;12.70;11.90;;;1.10;99.90;;;;;;6124563;23;20484;-78
2021/01/24 05:19:35;;;;;;;13.23;12.33;;;1.00;99.90;;;;;;6129626;23;20398;-78
2021/01/24 05:22:05;;;;;;;12.80;11.80;;;0.90;99.90;;;;;;6128383;23;20429;-77
2021/01/24 05:24:32;;;;;;;13.10;12.20;;;0.80;99.90;;;;;;6130990;23;20386;-78
2021/01/24 05:27:07;;;;;;;13.17;12.20;;;0.80;99.90;;;;;;6127343;23;20393;-76
2021/01/24 05:29:36;;;;;;;13.30;12.37;;;0.80;99.90;;;;;;6127689;23;20468;-78
2021/01/24 05:32:03;;;;;;;12.90;12.00;;;0.90;99.90;;;;;;6128408;23;20476;-78
2021/01/24 05:34:30;;;;;;;12.50;11.60;;;0.90;99.90;;;;;;6128018;23;20401;-77
2021/01/24 05:36:57;;;;;;;12.33;11.43;;;0.90;99.90;;;;;;6127331;23;20417;-80
2021/01/24 05:39:26;;;;;;;12.43;11.63;;;0.90;99.90;;;;;;6126435;23;20706;-79
2021/01/24 05:41:53;;;;;;;12.33;11.53;;;1.00;99.90;;;;;;6124569;23;20476;-77
2021/01/24 05:44:21;;;;;;;12.37;11.57;;;1.00;99.90;;;;;;6125811;23;20389;-79
2021/01/24 05:46:48;;;;;;;11.97;11.17;;;1.00;99.90;;;;;;6124137;23;20421;-78
2021/01/24 05:49:21;;;;;;;12.13;11.23;;;0.90;99.90;;;;;;6125132;23;20396;-78
2021/01/24 05:51:58;;;;;;;11.47;10.77;;;0.80;99.90;;;;;;6125991;23;20424;-79
2021/01/24 05:54:43;;;;;;;11.83;11.13;;;0.70;99.90;;;;;;6126004;23;20381;-78
2021/01/24 05:57:11;;;;;;;12.57;11.67;;;0.70;99.90;;;;;;6124456;23;20410;-78
2021/01/24 05:59:51;;;;;;;12.47;11.57;;;0.70;99.90;;;;;;6124164;23;20424;-79
2021/01/24 06:02:18;;;;;;;12.37;11.47;;;0.60;99.90;;;;;;6125804;23;20904;-80
2021/01/24 06:04:45;;;;;;;12.50;11.70;;;0.60;99.90;;;;;;6124550;23;20417;-80
2021/01/24 06:07:13;;;;;;;12.30;11.40;;;0.60;99.90;;;;;;6126012;23;20389;-79
2021/01/24 06:09:41;;;;;;;12.90;11.90;;;0.50;99.90;;;;;;6124151;23;20441;-79
2021/01/24 06:12:08;;;;;;;12.50;11.70;;;0.50;99.90;;;;;;6125673;23;20413;-79
2021/01/24 06:14:37;;;;;;;12.33;11.53;;;0.50;99.90;;;;;;6124632;23;20422;-77
2021/01/24 06:17:08;;;;;;;12.63;11.83;;;0.40;99.90;;;;;;6126466;23;20456;-78
2021/01/24 06:19:40;;;;;;;11.87;10.97;;;0.40;99.90;;;;;;6127225;23;20409;-77
2021/01/24 06:22:12;;;;;;;12.30;11.53;;;0.30;99.90;;;;;;6128276;23;20441;-77
2021/01/24 06:24:44;;;;;;;12.57;11.60;;;0.30;99.90;;;;;;6128996;23;20409;-77
2021/01/24 06:27:16;;;;;;;11.80;11.10;;;0.30;99.90;;;;;;6124852;23;20892;-77
2021/01/24 06:29:46;;;;;;;11.70;10.90;;;0.30;99.90;;;;;;6124569;23;20408;-77
2021/01/24 06:32:24;;;;;;;11.30;10.60;;;0.20;99.90;;;;;;6123930;23;20616;-77
2021/01/24 06:34:50;;;;;;;11.43;10.67;;;0.20;99.90;;;;;;6127309;23;20374;-77
2021/01/24 06:37:18;;;;;;;11.10;10.40;;;0.20;99.90;;;;;;6126217;23;20409;-77
2021/01/24 06:39:51;;;;;;;11.73;11.03;;;0.20;99.90;;;;;;6126157;23;20781;-77
2021/01/24 06:42:37;;;;;;;11.97;11.13;;;0.20;99.90;;;;;;6128052;23;20437;-77
2021/01/24 06:45:05;;;;;;;12.23;11.23;;;0.30;99.90;;;;;;6127464;23;20417;-78
2021/01/24 06:47:40;;;;;;;12.20;11.43;;;0.30;99.90;;;;;;6127689;23;20397;-78
2021/01/24 06:50:35;;;;;;;11.77;10.97;;;0.40;99.90;;;;;;6125377;23;20384;-78
2021/01/24 06:53:06;;;;;;;12.87;11.87;;;0.40;99.90;;;;;;6124309;23;20437;-79
2021/01/24 06:55:33;;;;;;;12.17;11.37;;;0.50;99.90;;;;;;6122399;23;20413;-78
2021/01/24 06:58:31;;;;;;;12.30;11.43;;;0.40;99.90;;;;;;6125291;23;20390;-78
2021/01/24 07:01:33;;;;;;;12.03;11.23;;;0.40;99.90;;;;;;6125143;23;20421;-79
2021/01/24 07:04:42;;;;;;;12.43;11.43;;;0.40;99.90;;;;;;6124264;23;20428;-79
2021/01/24 07:07:32;;;;;;;12.27;11.37;;;0.50;99.90;;;;;;6124434;23;20463;-76
2021/01/24 07:09:59;;;;;;;12.33;11.53;;;0.50;99.90;;;;;;6123309;23;20939;-79
2021/01/24 07:12:50;;;;;;;11.73;11.00;;;0.60;99.90;;;;;;6125017;23;20413;-79
2021/01/24 07:15:21;;;;;;;12.53;11.67;;;0.60;99.90;;;;;;6096589;23;20421;-78
2021/01/24 07:17:55;;;;;;;9.77;9.07;;;0.70;99.90;;;;;;6125282;23;20449;-78
2021/01/24 07:20:22;;;;;;;9.70;9.00;;;0.70;99.90;;;;;;6124016;23;20437;-77
2021/01/24 07:22:49;;;;;;;10.40;9.30;;;0.70;99.90;;;;;;6123767;23;20433;-78
2021/01/24 07:25:17;;;;;;;8.90;8.30;;;0.70;99.90;;;;;;6125270;23;20409;-78
2021/01/24 07:27:43;;;;;;;11.23;10.53;;;0.70;99.90;;;;;;6125134;23;20445;-78
2021/01/24 07:30:12;;;;;;;11.73;10.83;;;0.70;99.90;;;;;;6128714;23;20448;-79
2021/01/24 07:32:40;;;;;;;9.67;8.87;;;0.80;99.90;;;;;;6129895;23;21004;-78
2021/01/24 07:35:07;;;;;;;9.50;8.80;;;0.80;99.90;;;;;;6127661;23;20422;-77
2021/01/24 07:37:36;;;;;;;11.97;11.17;;;0.80;99.90;;;;;;6121028;23;20931;-76
2021/01/24 07:40:03;;;;;;;11.83;10.93;;;0.80;99.90;;;;;;6124375;23;20393;-76
2021/01/24 07:42:29;;;;;;;11.73;10.67;;;0.80;99.90;;;;;;6124283;23;20425;-77
2021/01/24 07:44:56;;;;;;;9.43;8.70;;;0.90;99.90;;;;;;6123179;23;20409;-77
2021/01/24 07:47:23;;;;;;;10.63;9.73;;;0.90;99.90;;;;;;6124537;23;20416;-75
2021/01/24 07:49:49;;;;;;;14.17;10.93;;;1.00;99.90;;;;;;6124214;23;20389;-75
2021/01/24 07:52:19;;;;;;;10.63;9.93;;;1.00;99.90;;;;;;6122618;23;20444;-75
2021/01/24 07:54:45;;;;;;;11.90;11.10;;;1.00;99.90;;;;;;6124606;23;20417;-76
2021/01/24 07:57:12;;;;;;;11.77;11.00;;;1.10;99.90;;;;;;6124507;23;20418;-75
2021/01/24 07:59:39;;;;;;;11.77;10.80;;;1.10;99.90;;;;;;6124060;23;20703;-75
2021/01/24 08:02:05;;;;;;;11.63;10.90;;;1.10;99.90;;;;;;6122616;23;20449;-75
2021/01/24 08:04:36;;;;;;;11.50;10.60;;;1.20;99.90;;;;;;6120924;23;20422;-75
2021/01/24 08:07:06;;;;;;;10.80;10.10;;;1.20;99.90;;;;;;6123445;23;20416;-75
2021/01/24 08:09:32;;;;;;;11.77;10.87;;;1.20;99.90;;;;;;6122503;23;20468;-74
2021/01/24 08:11:58;;;;;;;11.93;11.07;;;1.20;99.90;;;;;;6124130;23;20410;-75
2021/01/24 08:14:25;;;;;;;12.23;11.50;;;1.20;99.90;;;;;;6124315;23;20390;-75
2021/01/24 08:16:52;;;;;;;13.23;12.07;;;1.20;99.90;;;;;;6124499;23;20398;-75
2021/01/24 08:19:22;;;;;;;12.70;11.80;;;1.20;99.90;;;;;;6124243;23;20401;-75
2021/01/24 08:21:51;;;;;;;11.90;11.20;;;1.20;99.90;;;;;;6122873;23;20453;-75
2021/01/24 08:24:18;;;;;;;12.00;11.07;;;1.20;99.90;;;;;;6123066;23;20541;-75
2021/01/24 08:26:44;;;;;;;11.60;10.70;;;1.10;99.90;;;;;;6122932;23;20422;-74
2021/01/24 08:29:11;;;;;;;11.70;10.90;;;1.10;99.90;;;;;;6122756;23;20466;-74
2021/01/24 08:31:39;;;;;;;11.80;11.00;;;1.00;99.90;;;;;;6124135;23;20409;-74
2021/01/24 08:34:06;;;;;;;12.00;11.20;;;1.20;99.90;;;;;;6123157;23;20417;-75
2021/01/24 08:36:33;;;;;;;12.37;11.50;;;1.60;99.90;;;;;;6123013;23;20441;-75
2021/01/24 08:39:00;;;;;;;11.80;11.00;;;1.60;99.90;;;;;;6122936;23;20415;-75
2021/01/24 08:41:38;;;;;;;11.40;10.63;;;1.60;99.90;;;;;;6123006;23;20845;-75
2021/01/24 08:44:07;;;;;;;11.50;10.60;;;1.60;99.90;;;;;;6124351;23;20378;-76
2021/01/24 08:46:42;;;;;;;11.30;10.60;;;1.50;99.90;;;;;;6124428;23;20398;-75
2021/01/24 08:49:11;;;;;;;11.13;10.43;;;1.50;99.90;;;;;;6122727;23;20423;-75
2021/01/24 08:51:46;;;;;;;11.00;10.30;;;1.60;99.90;;;;;;6122842;23;20437;-75
2021/01/24 08:54:15;;;;;;;10.87;10.17;;;1.60;99.90;;;;;;6124333;23;20396;-75
2021/01/24 08:56:41;;;;;;;10.90;10.20;;;1.50;99.90;;;;;;6124410;23;20423;-75
2021/01/24 08:59:27;;;;;;;10.67;9.97;;;1.60;99.90;;;;;;6125966;23;20393;-75
2021/01/24 09:01:55;;;;;;;10.67;10.07;;;1.80;99.90;;;;;;6124614;23;20483;-75
2021/01/24 09:04:23;;;;;;;10.90;10.20;;;2.00;99.90;;;;;;6126348;23;20394;-74
2021/01/24 09:07:09;;;;;;;10.40;9.80;;;2.10;99.90;;;;;;6124806;23;20413;-75
2021/01/24 09:09:38;;;;;;;10.50;9.80;;;2.20;99.90;;;;;;6126386;23;20374;-75
2021/01/24 09:12:06;;;;;;;11.00;10.30;;;2.40;99.90;;;;;;6124840;23;20433;-77
2021/01/24 09:14:32;;;;;;;10.30;9.70;;;2.40;99.90;;;;;;6127473;23;20448;-77
2021/01/24 09:17:10;;;;;;;9.60;8.90;;;2.50;99.90;;;;;;6125468;23;20523;-76
2021/01/24 09:19:46;;;;;;;9.67;8.90;;;2.80;99.90;;;;;;6124734;23;20413;-77
2021/01/24 09:22:17;;;;;;;8.90;8.40;;;3.00;99.90;;;;;;6124567;23;20491;-75
2021/01/24 09:24:45;;;;;;;9.60;8.70;;;3.20;99.90;;;;;;6126653;23;20396;-77
2021/01/24 09:27:12;;;;;;;10.10;9.30;;;3.10;99.90;;;;;;6126871;23;20478;-79
2021/01/24 09:29:48;;;;;;;9.87;9.17;;;3.00;99.90;;;;;;6125406;23;20479;-78
2021/01/24 09:32:15;;;;;;;9.80;9.10;;;3.00;99.90;;;;;;6126799;23;20436;-79
2021/01/24 09:34:41;;;;;;;9.33;8.77;;;2.90;99.90;;;;;;6127859;23;20399;-79
2021/01/24 09:37:08;;;;;;;8.93;8.43;;;2.90;99.90;;;;;;6125508;23;20426;-78
2021/01/24 09:39:40;;;;;;;9.73;9.03;;;2.90;99.90;;;;;;6126655;23;20730;-78
2021/01/24 09:42:08;;;;;;;9.63;8.93;;;2.90;99.90;;;;;;6125316;23;20486;-79
2021/01/24 09:44:34;;;;;;;9.10;8.53;;;3.00;99.90;;;;;;6128407;23;20761;-80
2021/01/24 09:47:00;;;;;;;9.30;8.70;;;3.10;99.90;;;;;;6125029;23;20468;-79
2021/01/24 09:49:56;;;;;;;9.20;8.60;;;3.10;99.90;;;;;;6124237;23;20411;-78
2021/01/24 09:52:27;;;;;;;9.10;8.27;;;3.10;99.90;;;;;;6118869;23;20841;-80
2021/01/24 09:54:59;;;;;;;9.30;8.70;;;3.00;99.90;;;;;;6124686;23;20502;-79
2021/01/24 09:57:26;;;;;;;9.50;8.80;;;3.00;99.90;;;;;;6124843;23;20919;-80
2021/01/24 10:03:12;;;;;;;9.50;8.80;;;3.10;99.90;;;;;;6110383;23;20429;-80
2021/01/24 10:05:41;;;;;;;8.60;8.00;;;3.10;99.90;;;;;;6124784;23;20563;-81
2021/01/24 10:08:08;;;;;;;8.90;8.30;;;3.20;99.90;;;;;;6125341;23;20900;-76
2021/01/24 10:10:34;;;;;;;9.57;8.97;;;3.20;99.90;;;;;;6125444;23;20401;-79
2021/01/24 10:13:04;;;;;;;9.20;8.60;;;3.30;99.90;;;;;;6124598;23;20443;-79
2021/01/24 10:15:30;;;;;;;8.67;8.17;;;3.20;99.90;;;;;;6125562;23;20392;-77
2021/01/24 10:17:56;;;;;;;8.27;7.77;;;3.30;99.90;;;;;;6123691;23;20413;-77
2021/01/24 10:20:23;;;;;;;8.73;8.07;;;3.40;99.90;;;;;;6125933;23;21153;-77
2021/01/24 10:22:49;;;;;;;8.60;8.00;;;3.30;99.90;;;;;;6126920;23;20437;-76
2021/01/24 10:25:15;;;;;;;8.80;8.00;;;3.40;99.90;;;;;;6127694;23;20417;-77
2021/01/24 10:27:42;;;;;;;8.37;7.77;;;3.40;99.90;;;;;;6127955;23;20415;-77
2021/01/24 10:30:11;;;;;;;8.50;8.00;;;3.40;99.90;;;;;;6127752;23;20425;-76
2021/01/24 10:32:39;;;;;;;8.77;8.07;;;3.30;99.90;;;;;;6125966;23;20445;-76
2021/01/24 10:35:07;;;;;;;8.30;7.80;;;3.30;99.90;;;;;;6124529;23;20904;-77
2021/01/24 10:37:33;;;;;;;8.47;7.87;;;3.30;99.90;;;;;;6126546;23;20390;-76
2021/01/24 10:40:00;;;;;;;8.60;8.00;;;3.30;99.90;;;;;;6123810;23;20413;-76
2021/01/24 10:42:26;;;;;;;8.90;8.30;;;3.30;99.90;;;;;;6125797;23;20924;-76
2021/01/24 10:44:52;;;;;;;8.60;8.00;;;3.40;99.90;;;;;;6125471;23;20396;-76
2021/01/24 10:47:19;;;;;;;8.70;8.00;;;3.40;99.90;;;;;;6124088;23;20898;-77
2021/01/24 10:49:46;;;;;;;8.90;8.20;;;3.40;99.90;;;;;;6123577;23;20389;-78
2021/01/24 10:52:13;;;;;;;9.10;8.40;;;3.50;99.90;;;;;;6123959;23;20484;-81
2021/01/24 10:54:39;;;;;;;8.70;7.97;;;3.60;99.90;;;;;;6124345;23;20417;-81
2021/01/24 10:57:06;;;;;;;9.10;8.40;;;3.60;99.90;;;;;;6123969;23;20417;-79
2021/01/24 10:59:32;;;;;;;8.83;8.10;;;3.70;99.90;;;;;;6123427;23;20421;-78
2021/01/24 11:02:02;;;;;;;8.90;8.00;;;3.70;99.90;;;;;;6123585;23;20451;-83
2021/01/24 11:04:32;;;;;;;8.40;7.70;;;3.70;99.90;;;;;;6125492;23;20400;-80
2021/01/24 11:06:58;;;;;;;8.60;8.00;;;3.70;99.90;;;;;;6125821;23;20482;-78
2021/01/24 11:09:25;;;;;;;9.13;8.47;;;3.70;99.90;;;;;;6124726;23;20393;-80
2021/01/24 11:11:51;;;;;;;8.40;7.90;;;3.70;99.90;;;;;;6125898;23;20460;-79
2021/01/24 11:14:17;;;;;;;8.80;8.20;;;3.70;99.90;;;;;;6125117;23;20528;-79
2021/01/24 11:16:44;;;;;;;8.23;7.63;;;3.80;99.90;;;;;;6125346;23;20390;-80
2021/01/24 11:19:10;;;;;;;8.00;7.50;;;3.80;99.90;;;;;;6125300;23;20396;-81
2021/01/24 11:21:37;;;;;;;8.00;7.50;;;3.70;99.90;;;;;;6126168;23;20472;-80
2021/01/24 11:24:04;;;;;;;8.50;7.90;;;3.80;99.90;;;;;;6125699;23;20423;-78
2021/01/24 11:26:31;;;;;;;8.73;8.10;;;3.70;99.90;;;;;;6126843;23;20420;-80
2021/01/24 11:28:57;;;;;;;9.00;8.30;;;3.70;99.90;;;;;;6123864;23;20931;-80
2021/01/24 11:31:24;;;;;;;8.30;7.80;;;3.70;99.90;;;;;;6123471;23;20830;-80
2021/01/24 11:33:50;;;;;;;8.30;7.80;;;3.60;99.90;;;;;;6126683;23;20464;-80
2021/01/24 11:36:16;;;;;;;8.80;8.20;;;3.60;99.90;;;;;;6124719;23;20421;-80
2021/01/24 11:38:45;;;;;;;8.63;8.13;;;3.60;99.90;;;;;;6125655;23;20444;-76
2021/01/24 11:41:12;;;;;;;8.53;7.87;;;3.60;99.90;;;;;;6123348;23;20687;-80
2021/01/24 11:43:39;;;;;;;8.50;8.00;;;3.50;99.90;;;;;;6124004;23;20211;-77
2021/01/24 11:46:05;;;;;;;8.40;7.90;;;3.50;99.90;;;;;;6123012;23;20417;-77
2021/01/24 11:48:31;;;;;;;8.67;7.87;;;3.40;99.90;;;;;;6124310;23;20409;-77
2021/01/24 11:50:57;;;;;;;8.10;7.60;;;3.40;99.90;;;;;;6125138;23;20964;-81
2021/01/24 11:53:24;;;;;;;8.50;8.00;;;3.40;99.90;;;;;;6125573;23;20414;-81
2021/01/24 11:55:52;;;;;;;8.60;8.00;;;3.40;99.90;;;;;;6124814;23;20485;-82
2021/01/24 11:58:19;;;;;;;8.60;8.00;;;3.40;99.90;;;;;;6125342;23;20428;-82
2021/01/24 12:00:45;;;;;;;8.30;7.80;;;3.40;99.90;;;;;;6126219;23;20433;-83
2021/01/24 12:03:11;;;;;;;8.13;7.50;;;3.50;99.90;;;;;;6126143;23;20405;-82
2021/01/24 12:05:38;;;;;;;8.67;8.17;;;3.50;99.90;;;;;;6125025;23;20904;-82
2021/01/24 12:08:05;;;;;;;8.60;7.90;;;3.50;99.90;;;;;;6125219;23;20409;-82
2021/01/24 12:10:31;;;;;;;8.60;8.00;;;3.50;99.90;;;;;;6125037;23;20432;-82
2021/01/24 12:12:59;;;;;;;8.60;8.03;;;3.50;99.90;;;;;;6123632;23;20467;-77
2021/01/24 12:15:25;;;;;;;8.23;7.73;;;3.50;99.90;;;;;;6122759;23;20413;-77
2021/01/24 12:17:51;;;;;;;8.63;7.90;;;3.50;99.90;;;;;;6124482;23;20717;-77
2021/01/24 12:20:18;;;;;;;8.90;8.20;;;3.60;99.90;;;;;;6123917;23;20421;-79
2021/01/24 12:22:44;;;;;;;8.50;7.90;;;3.70;99.90;;;;;;6121314;23;20416;-76
2021/01/24 12:25:11;;;;;;;8.60;8.00;;;3.70;99.90;;;;;;6122805;23;20413;-76
2021/01/24 12:27:39;;;;;;;8.57;8.03;;;3.70;99.90;;;;;;6124176;23;20393;-79
2021/01/24 12:30:33;;;;;;;8.70;8.20;;;3.80;99.90;;;;;;6123373;23;20417;-81
2021/01/24 12:33:20;;;;;;;8.87;8.27;;;3.90;99.90;;;;;;6116988;23;20440;-80
2021/01/24 12:36:03;;;;;;;8.43;7.83;;;4.00;99.90;;;;;;6125854;23;20476;-80
2021/01/24 12:38:29;;;;;;;8.70;8.00;;;4.10;99.90;;;;;;6125589;23;20386;-81
2021/01/24 12:41:05;;;;;;;8.97;8.30;;;4.10;99.90;;;;;;6125513;23;20440;-81
2021/01/24 12:43:37;;;;;;;8.30;7.80;;;4.10;99.90;;;;;;6121387;23;20417;-79
2021/01/24 12:46:15;;;;;;;8.90;8.20;;;4.20;99.90;;;;;;6123717;23;20760;-81
2021/01/24 12:48:42;;;;;;;8.07;7.57;;;4.10;99.90;;;;;;6125126;23;20417;-80
2021/01/24 12:51:09;;;;;;;8.50;8.00;;;4.00;99.90;;;;;;6123265;23;20429;-80
2021/01/24 12:53:42;;;;;;;9.17;8.53;;;4.00;99.90;;;;;;6124603;23;20176;-80
2021/01/24 12:56:29;;;;;;;8.90;8.30;;;4.00;99.90;;;;;;6124442;23;20420;-81